createdAt,value
2022-12-01T00:01:19.624Z,101209.00
2022-12-01T00:04:22.215Z,101216.06
2022-12-01T00:07:24.843Z,101222.81
2022-12-01T00:10:28.403Z,101223.41
2022-12-01T00:13:31.175Z,101229.22
2022-12-01T00:16:34.329Z,101222.25
2022-12-01T00:19:37.443Z,101234.56
2022-12-01T00:22:46.742Z,101232.38
2022-12-01T00:25:49.886Z,101234.56
2022-12-01T00:28:55.901Z,101238.78
2022-12-01T00:31:58.930Z,101236.53
2022-12-01T00:35:02.329Z,101235.59
2022-12-01T00:38:05.414Z,101230.13
2022-12-01T00:41:08.323Z,101227.06
2022-12-01T00:44:11.327Z,101229.66
2022-12-01T00:47:14.552Z,101212.09
2022-12-01T00:50:17.380Z,101214.72
2022-12-01T00:53:20.221Z,101224.19
2022-12-01T00:56:23.211Z,101216.88
2022-12-01T00:59:26.423Z,101219.59
2022-12-01T01:02:30.004Z,101221.44
2022-12-01T01:05:36.339Z,101224.03
2022-12-01T01:08:39.936Z,101215.03
2022-12-01T01:11:42.756Z,101214.94
2022-12-01T01:14:45.901Z,101213.22
2022-12-01T01:17:48.487Z,101219.75
2022-12-01T01:21:03.803Z,101214.81
2022-12-01T01:24:06.600Z,101217.19
2022-12-01T01:27:09.486Z,101220.41
2022-12-01T01:30:13.223Z,101209.69
2022-12-01T01:33:16.185Z,101214.56
2022-12-01T01:36:19.619Z,101205.69
2022-12-01T01:39:22.379Z,101199.63
2022-12-01T01:42:24.995Z,101218.41
2022-12-01T01:45:29.947Z,101211.66
2022-12-01T01:48:36.556Z,101204.75
2022-12-01T01:51:41.810Z,101201.19
2022-12-01T01:54:48.039Z,101190.47
2022-12-01T01:57:51.221Z,101195.47
2022-12-01T02:00:53.795Z,101189.34
2022-12-01T02:03:57.175Z,101187.28
2022-12-01T02:07:00.081Z,101192.53
2022-12-01T02:10:02.970Z,101188.19
2022-12-01T02:13:27.813Z,101182.59
2022-12-01T02:16:36.708Z,101192.75
2022-12-01T02:20:25.666Z,101188.53
2022-12-01T02:24:10.027Z,101190.94
2022-12-01T02:30:53.729Z,101201.53
2022-12-01T02:34:25.502Z,101208.13
2022-12-01T02:37:40.904Z,101210.88
2022-12-01T02:41:08.057Z,101213.63
2022-12-01T02:44:27.839Z,101207.91
2022-12-01T02:47:31.405Z,101208.47
2022-12-01T02:50:35.974Z,101218.50
2022-12-01T02:53:38.848Z,101212.09
2022-12-01T02:56:45.192Z,101212.94
2022-12-01T02:59:52.033Z,101207.13
2022-12-01T03:03:46.242Z,101206.78
2022-12-01T03:07:27.250Z,101211.50
2022-12-01T03:10:53.148Z,101214.50
2022-12-01T03:14:04.966Z,101213.91
2022-12-01T03:17:14.700Z,101211.28
2022-12-01T03:20:32.230Z,101213.97
2022-12-01T03:23:38.756Z,101210.69
2022-12-01T03:26:46.103Z,101203.84
2022-12-01T03:29:51.968Z,101202.63
2022-12-01T03:33:01.279Z,101207.09
2022-12-01T03:36:28.934Z,101205.44
2022-12-01T03:39:34.815Z,101199.69
2022-12-01T03:42:49.688Z,101200.50
2022-12-01T03:46:10.621Z,101197.78
2022-12-01T03:49:17.436Z,101195.09
2022-12-01T03:52:40.983Z,101197.84
2022-12-01T03:55:47.124Z,101190.75
2022-12-01T03:58:52.686Z,101188.50
2022-12-01T04:01:55.463Z,101190.31
2022-12-01T04:04:57.986Z,101181.88
2022-12-01T04:08:01.457Z,101194.31
2022-12-01T04:11:32.248Z,101186.09
2022-12-01T04:14:35.451Z,101188.81
2022-12-01T04:17:39.103Z,101183.22
2022-12-01T04:20:43.620Z,101186.41
2022-12-01T04:24:01.050Z,101183.22
2022-12-01T04:27:03.992Z,101182.41
2022-12-01T04:30:08.045Z,101185.91
2022-12-01T04:33:10.702Z,101183.97
2022-12-01T04:36:13.080Z,101191.13
2022-12-01T04:39:16.224Z,101196.09
2022-12-01T04:42:18.771Z,101188.88
2022-12-01T04:45:21.428Z,101193.16
2022-12-01T04:48:24.095Z,101189.53
2022-12-01T04:51:26.849Z,101188.00
2022-12-01T04:54:29.742Z,101189.81
2022-12-01T04:57:32.377Z,101196.75
2022-12-01T05:00:35.130Z,101202.25
2022-12-01T05:03:39.732Z,101212.63
2022-12-01T05:06:42.828Z,101206.56
2022-12-01T05:09:45.591Z,101203.28
2022-12-01T05:12:48.347Z,101205.31
2022-12-01T05:15:51.269Z,101208.88
2022-12-01T05:19:16.258Z,101213.84
2022-12-01T05:22:36.394Z,101206.00
2022-12-01T05:25:43.363Z,101206.50
2022-12-01T05:28:46.453Z,101201.03
2022-12-01T05:31:49.228Z,101205.91
2022-12-01T05:34:52.059Z,101211.44
2022-12-01T05:37:54.790Z,101202.63
2022-12-01T05:40:57.680Z,101211.13
2022-12-01T05:44:00.202Z,101208.66
2022-12-01T05:47:03.106Z,101208.41
2022-12-01T05:50:06.437Z,101209.63
2022-12-01T05:53:11.830Z,101215.66
2022-12-01T05:56:15.003Z,101208.25
2022-12-01T05:59:17.695Z,101203.63
2022-12-01T06:02:20.405Z,101212.94
2022-12-01T06:05:23.295Z,101212.34
2022-12-01T06:08:25.982Z,101214.63
2022-12-01T06:11:28.826Z,101219.34
2022-12-01T06:14:31.568Z,101222.63
2022-12-01T06:17:39.773Z,101217.53
2022-12-01T06:20:42.984Z,101220.69
2022-12-01T06:23:45.574Z,101224.59
2022-12-01T06:26:48.069Z,101224.91
2022-12-01T06:29:51.163Z,101217.56
2022-12-01T06:32:53.915Z,101220.81
2022-12-01T06:36:04.893Z,101211.25
2022-12-01T06:39:10.130Z,101222.19
2022-12-01T06:42:12.676Z,101206.91
2022-12-01T06:45:15.467Z,101224.50
2022-12-01T06:48:17.860Z,101217.13
2022-12-01T06:51:20.530Z,101223.09
2022-12-01T06:54:23.083Z,101228.56
2022-12-01T06:57:26.408Z,101226.84
2022-12-01T07:00:29.336Z,101225.69
2022-12-01T07:03:31.963Z,101219.97
2022-12-01T07:06:34.956Z,101227.38
2022-12-01T07:09:38.906Z,101223.84
2022-12-01T07:12:42.623Z,101226.94
2022-12-01T07:15:45.103Z,101228.50
2022-12-01T07:18:47.976Z,101231.63
2022-12-01T07:21:50.591Z,101235.19
2022-12-01T07:24:53.322Z,101241.59
2022-12-01T07:27:56.674Z,101244.75
2022-12-01T07:31:07.646Z,101230.22
2022-12-01T07:34:13.336Z,101232.09
2022-12-01T07:37:15.943Z,101235.59
2022-12-01T07:40:18.855Z,101229.75
2022-12-01T07:43:21.414Z,101234.63
2022-12-01T07:46:26.637Z,101223.03
2022-12-01T07:49:29.459Z,101228.09
2022-12-01T07:52:32.596Z,101226.91
2022-12-01T07:55:35.122Z,101228.66
2022-12-01T07:58:38.084Z,101221.84
2022-12-01T08:01:44.436Z,101224.84
2022-12-01T08:04:49.962Z,101228.44
2022-12-01T08:07:59.423Z,101222.44
2022-12-01T08:11:06.748Z,101221.47
2022-12-01T08:14:09.465Z,101226.00
2022-12-01T08:17:12.021Z,101220.53
2022-12-01T08:20:20.821Z,101227.59
2022-12-01T08:23:26.196Z,101221.84
2022-12-01T08:26:29.322Z,101220.28
2022-12-01T08:29:31.910Z,101218.97
2022-12-01T08:32:34.688Z,101218.88
2022-12-01T08:35:37.293Z,101224.53
2022-12-01T08:38:40.047Z,101230.59
2022-12-01T08:41:42.766Z,101227.56
2022-12-01T08:44:45.364Z,101231.56
2022-12-01T08:47:48.202Z,101236.72
2022-12-01T08:50:50.758Z,101236.69
2022-12-01T08:53:55.415Z,101230.19
2022-12-01T08:56:57.949Z,101227.69
2022-12-01T09:00:00.602Z,101226.38
2022-12-01T09:03:03.510Z,101222.47
2022-12-01T09:06:08.972Z,101229.63
2022-12-01T09:09:14.607Z,101232.28
2022-12-01T09:12:17.439Z,101230.81
2022-12-01T09:15:20.192Z,101227.56
2022-12-01T09:18:22.988Z,101220.00
2022-12-01T09:21:28.623Z,101221.72
2022-12-01T09:24:31.662Z,101215.91
2022-12-01T09:27:34.195Z,101209.63
2022-12-01T09:30:37.180Z,101200.22
2022-12-01T09:33:40.496Z,101197.53
2022-12-01T09:36:44.315Z,101202.47
2022-12-01T09:39:47.017Z,101191.91
2022-12-01T09:42:50.307Z,101189.91
2022-12-01T09:45:59.099Z,101189.28
2022-12-01T09:49:04.243Z,101185.44
2022-12-01T09:52:12.775Z,101182.84
2022-12-01T09:55:17.774Z,101166.25
2022-12-01T09:58:26.387Z,101167.13
2022-12-01T10:01:42.801Z,101169.25
2022-12-01T10:04:48.914Z,101167.63
2022-12-01T10:08:07.342Z,101168.94
2022-12-01T10:11:33.424Z,101159.72
2022-12-01T10:14:37.242Z,101154.28
2022-12-01T10:17:47.688Z,101143.06
2022-12-01T10:20:59.173Z,101142.28
2022-12-01T10:24:13.916Z,101139.19
2022-12-01T10:27:47.270Z,101134.22
2022-12-01T10:30:53.507Z,101133.81
2022-12-01T10:34:06.437Z,101132.78
2022-12-01T10:37:25.954Z,101123.25
2022-12-01T10:40:29.064Z,101119.81
2022-12-01T10:43:39.945Z,101127.47
2022-12-01T10:46:52.539Z,101117.16
2022-12-01T10:49:56.530Z,101119.34
2022-12-01T10:52:59.005Z,101119.00
2022-12-01T10:56:11.346Z,101112.72
2022-12-01T10:59:36.120Z,101117.16
2022-12-01T11:02:39.166Z,101110.75
2022-12-01T11:05:42.789Z,101108.53
2022-12-01T11:09:00.143Z,101114.41
2022-12-01T11:12:04.773Z,101104.22
2022-12-01T11:15:08.827Z,101110.72
2022-12-01T11:18:28.565Z,101102.34
2022-12-01T11:21:31.068Z,101095.38
2022-12-01T11:24:42.583Z,101101.41
2022-12-01T11:27:50.956Z,101089.22
2022-12-01T11:30:58.635Z,101094.91
2022-12-01T11:34:01.270Z,101099.31
2022-12-01T11:37:07.760Z,101090.94
2022-12-01T11:40:28.959Z,101095.66
2022-12-01T11:43:37.763Z,101091.69
2022-12-01T11:46:50.395Z,101096.38
2022-12-01T11:50:00.967Z,101090.38
2022-12-01T11:53:04.903Z,101086.56
2022-12-01T11:56:13.961Z,101088.75
2022-12-01T11:59:21.636Z,101088.16
2022-12-01T12:02:35.869Z,101085.88
2022-12-01T12:05:57.589Z,101079.34
2022-12-01T12:09:40.153Z,101086.59
2022-12-01T12:12:53.029Z,101087.13
2022-12-01T12:16:13.071Z,101094.06
2022-12-01T12:20:06.261Z,101087.50
2022-12-01T12:23:21.632Z,101094.34
2022-12-01T12:27:00.421Z,101086.63
2022-12-01T12:30:06.100Z,101083.56
2022-12-01T12:33:23.553Z,101083.81
2022-12-01T12:37:05.314Z,101085.34
2022-12-01T12:40:29.848Z,101090.00
2022-12-01T12:44:00.394Z,101085.72
2022-12-01T12:47:34.871Z,101091.75
2022-12-01T12:50:53.169Z,101081.22
2022-12-01T12:54:15.106Z,101080.00
2022-12-01T12:57:29.401Z,101075.31
2022-12-01T13:00:34.984Z,101072.66
2022-12-01T13:03:48.214Z,101079.09
2022-12-01T13:07:00.542Z,101072.34
2022-12-01T13:10:28.900Z,101071.25
2022-12-01T13:13:37.653Z,101086.69
2022-12-01T13:16:44.037Z,101084.00
2022-12-01T13:19:48.287Z,101077.28
2022-12-01T13:22:52.958Z,101075.53
2022-12-01T13:25:59.479Z,101083.72
2022-12-01T13:29:06.176Z,101086.69
2022-12-01T13:32:38.365Z,101090.50
2022-12-01T13:35:40.992Z,101092.81
2022-12-01T13:38:44.055Z,101092.19
2022-12-01T13:41:56.683Z,101095.94
2022-12-01T13:45:10.531Z,101092.88
2022-12-01T13:48:38.188Z,101093.72
2022-12-01T13:52:19.473Z,101089.56
2022-12-01T13:55:28.462Z,101096.25
2022-12-01T13:58:33.872Z,101097.72
2022-12-01T14:01:46.282Z,101098.97
2022-12-01T14:04:49.337Z,101092.00
2022-12-01T14:07:54.080Z,101093.53
2022-12-01T14:11:01.499Z,101092.03
2022-12-01T14:14:24.244Z,101097.09
2022-12-01T14:17:34.287Z,101094.66
2022-12-01T14:20:45.725Z,101085.56
2022-12-01T14:24:05.136Z,101088.94
2022-12-01T14:27:10.984Z,101088.91
2022-12-01T14:30:42.120Z,101098.75
2022-12-01T14:33:57.909Z,101109.03
2022-12-01T14:37:26.229Z,101105.31
2022-12-01T14:40:30.391Z,101107.88
2022-12-01T14:43:51.982Z,101106.50
2022-12-01T14:47:06.495Z,101111.16
2022-12-01T14:50:35.309Z,101106.63
2022-12-01T14:53:44.575Z,101106.91
2022-12-01T14:56:51.440Z,101098.09
2022-12-01T15:00:14.219Z,101099.00
2022-12-01T15:03:16.789Z,101097.44
2022-12-01T15:06:21.788Z,101094.72
2022-12-01T15:09:33.618Z,101097.28
2022-12-01T15:12:37.536Z,101096.88
2022-12-01T15:15:51.420Z,101092.56
2022-12-01T15:18:54.108Z,101099.56
2022-12-01T15:21:59.966Z,101092.94
2022-12-01T15:25:20.615Z,101103.38
2022-12-01T15:28:33.790Z,101094.81
2022-12-01T15:31:36.645Z,101099.66
2022-12-01T15:34:44.532Z,101087.44
2022-12-01T15:37:47.217Z,101090.53
2022-12-01T15:41:21.094Z,101091.03
2022-12-01T15:44:26.170Z,101082.16
2022-12-01T15:47:46.143Z,101091.44
2022-12-01T15:51:04.735Z,101094.09
2022-12-01T15:54:20.855Z,101100.03
2022-12-01T15:57:24.722Z,101102.31
2022-12-01T16:00:28.519Z,101097.34
2022-12-01T16:03:31.746Z,101096.22
2022-12-01T16:06:37.005Z,101098.19
2022-12-01T16:09:55.033Z,101092.25
2022-12-01T16:13:34.846Z,101097.13
2022-12-01T16:16:43.892Z,101099.28
2022-12-01T16:19:48.027Z,101102.81
2022-12-01T16:23:02.450Z,101100.75
2022-12-01T16:26:08.432Z,101109.44
2022-12-01T16:29:25.892Z,101102.75
2022-12-01T16:32:38.402Z,101103.16
2022-12-01T16:35:40.827Z,101105.63
2022-12-01T16:38:43.940Z,101096.28
2022-12-01T16:41:47.989Z,101105.19
2022-12-01T16:44:52.209Z,101105.97
2022-12-01T16:47:55.205Z,101113.38
2022-12-01T16:51:02.671Z,101098.38
2022-12-01T16:54:06.683Z,101104.84
2022-12-01T16:57:09.441Z,101105.66
2022-12-01T17:00:12.707Z,101101.19
2022-12-01T17:03:16.990Z,101101.50
2022-12-01T17:06:20.248Z,101096.38
2022-12-01T17:09:23.562Z,101099.56
2022-12-01T17:12:26.831Z,101102.47
2022-12-01T17:15:29.502Z,101109.50
2022-12-01T17:18:35.272Z,101112.59
2022-12-01T17:21:38.179Z,101108.72
2022-12-01T17:24:41.035Z,101121.34
2022-12-01T17:27:44.241Z,101122.44
2022-12-01T17:30:47.052Z,101127.88
2022-12-01T17:33:50.801Z,101129.25
2022-12-01T17:36:53.561Z,101130.50
2022-12-01T17:39:56.576Z,101122.09
2022-12-01T17:42:59.116Z,101124.22
2022-12-01T17:46:02.309Z,101126.66
2022-12-01T17:49:09.413Z,101126.56
2022-12-01T17:52:12.591Z,101126.44
2022-12-01T17:55:15.202Z,101122.25
2022-12-01T17:58:21.548Z,101121.19
2022-12-01T18:01:30.012Z,101118.22
2022-12-01T18:04:33.775Z,101123.28
2022-12-01T18:07:36.548Z,101120.88
2022-12-01T18:10:39.521Z,101120.50
2022-12-01T18:13:47.728Z,101135.25
2022-12-01T18:16:50.447Z,101126.50
2022-12-01T18:19:53.283Z,101131.97
2022-12-01T18:22:56.423Z,101126.84
2022-12-01T18:26:12.133Z,101126.44
2022-12-01T18:29:26.343Z,101120.31
2022-12-01T18:32:29.226Z,101127.06
2022-12-01T18:35:32.256Z,101131.97
2022-12-01T18:38:34.763Z,101138.19
2022-12-01T18:41:38.230Z,101124.66
2022-12-01T18:44:42.356Z,101128.22
2022-12-01T18:47:45.810Z,101132.56
2022-12-01T18:50:48.961Z,101125.84
2022-12-01T18:54:00.476Z,101126.28
2022-12-01T18:57:03.519Z,101123.91
2022-12-01T19:00:07.606Z,101133.03
2022-12-01T19:03:10.375Z,101127.09
2022-12-01T19:06:13.692Z,101145.69
2022-12-01T19:09:17.515Z,101145.81
2022-12-01T19:12:20.537Z,101143.88
2022-12-01T19:15:23.438Z,101142.41
2022-12-01T19:18:25.985Z,101140.00
2022-12-01T19:21:29.027Z,101143.31
2022-12-01T19:24:35.575Z,101152.66
2022-12-01T19:27:39.257Z,101146.38
2022-12-01T19:30:47.925Z,101156.56
2022-12-01T19:33:53.613Z,101156.78
2022-12-01T19:36:57.011Z,101162.38
2022-12-01T19:39:59.659Z,101158.16
2022-12-01T19:43:02.757Z,101162.16
2022-12-01T19:46:15.151Z,101158.94
2022-12-01T19:49:18.135Z,101157.59
2022-12-01T19:52:21.199Z,101167.84
2022-12-01T19:55:23.829Z,101163.41
2022-12-01T19:58:28.431Z,101162.50
2022-12-01T20:01:32.347Z,101158.94
2022-12-01T20:04:38.484Z,101154.50
2022-12-01T20:07:41.487Z,101149.16
2022-12-01T20:10:49.985Z,101156.22
2022-12-01T20:13:53.483Z,101154.41
2022-12-01T20:16:56.208Z,101152.78
2022-12-01T20:19:59.111Z,101161.25
2022-12-01T20:23:02.029Z,101168.66
2022-12-01T20:26:07.882Z,101172.53
2022-12-01T20:29:28.170Z,101164.78
2022-12-01T20:32:36.032Z,101180.53
2022-12-01T20:35:38.871Z,101174.59
2022-12-01T20:38:42.115Z,101173.09
2022-12-01T20:41:45.267Z,101171.41
2022-12-01T20:44:49.174Z,101171.84
2022-12-01T20:47:52.191Z,101173.88
2022-12-01T20:50:55.075Z,101173.34
2022-12-01T20:54:26.306Z,101180.66
2022-12-01T20:57:20.819Z,101182.13
2022-12-01T21:00:23.808Z,101175.28
2022-12-01T21:03:27.160Z,101169.69
2022-12-01T21:06:29.706Z,101163.19
2022-12-01T21:09:32.763Z,101170.25
2022-12-01T21:12:54.668Z,101159.75
2022-12-01T21:16:04.126Z,101173.25
2022-12-01T21:19:15.872Z,101169.81
2022-12-01T21:22:19.431Z,101167.66
2022-12-01T21:25:24.419Z,101169.56
2022-12-01T21:28:27.841Z,101170.16
2022-12-01T21:31:32.090Z,101174.94
2022-12-01T21:34:35.616Z,101182.56
2022-12-01T21:37:38.095Z,101185.56
2022-12-01T21:40:43.916Z,101186.81
2022-12-01T21:43:46.438Z,101189.06
2022-12-01T21:46:56.732Z,101184.97
2022-12-01T21:50:08.916Z,101193.53
2022-12-01T21:53:16.782Z,101190.53
2022-12-01T21:56:25.658Z,101195.13
2022-12-01T21:59:28.294Z,101196.50
2022-12-01T22:02:48.849Z,101201.28
2022-12-01T22:06:27.544Z,101198.75
2022-12-01T22:09:34.280Z,101201.69
2022-12-01T22:12:37.967Z,101191.13
2022-12-01T22:15:41.389Z,101195.31
2022-12-01T22:18:55.969Z,101198.75
2022-12-01T22:22:10.706Z,101201.69
2022-12-01T22:25:27.424Z,101200.94
2022-12-01T22:28:30.094Z,101192.84
2022-12-01T22:31:32.843Z,101195.13
2022-12-01T22:34:35.435Z,101191.44
2022-12-01T22:37:45.247Z,101195.34
2022-12-01T22:41:13.302Z,101188.72
2022-12-01T22:44:16.084Z,101186.88
2022-12-01T22:47:18.523Z,101181.19
2022-12-01T22:50:28.653Z,101177.28
2022-12-01T22:53:31.366Z,101186.06
2022-12-01T22:56:43.171Z,101176.34
2022-12-01T22:59:47.776Z,101172.22
2022-12-01T23:02:53.334Z,101166.75
2022-12-01T23:05:57.378Z,101156.50
2022-12-01T23:09:00.338Z,101163.13
2022-12-01T23:12:30.207Z,101165.03
2022-12-01T23:15:41.386Z,101161.34
2022-12-01T23:18:43.881Z,101158.50
2022-12-01T23:21:46.733Z,101154.03
2022-12-01T23:24:49.501Z,101160.41
2022-12-01T23:27:54.362Z,101157.78
2022-12-01T23:30:59.350Z,101161.22
2022-12-01T23:34:02.072Z,101157.50
2022-12-01T23:37:15.248Z,101159.69
2022-12-01T23:40:26.600Z,101156.38
2022-12-01T23:43:34.729Z,101157.28
2022-12-01T23:46:37.678Z,101160.03
2022-12-01T23:49:40.591Z,101154.84
2022-12-01T23:52:43.241Z,101164.91
2022-12-01T23:55:45.791Z,101163.66
2022-12-01T23:58:48.863Z,101152.75
